createdAt,value
2018-12-08T00:02:02.132Z,72.58
2018-12-08T00:04:07.226Z,71.91
2018-12-08T00:06:12.081Z,71.95
2018-12-08T00:08:16.859Z,71.99
2018-12-08T00:10:21.626Z,71.50
2018-12-08T00:12:26.577Z,72.46
2018-12-08T00:14:31.261Z,71.33
2018-12-08T00:16:36.917Z,71.66
2018-12-08T00:18:41.637Z,71.47
2018-12-08T00:20:46.678Z,71.67
2018-12-08T00:22:51.388Z,71.00
2018-12-08T00:24:58.048Z,70.66
2018-12-08T00:27:02.714Z,71.00
2018-12-08T00:29:08.724Z,71.35
2018-12-08T00:31:29.942Z,71.47
2018-12-08T00:33:34.645Z,71.38
2018-12-08T00:35:39.360Z,70.28
2018-12-08T00:37:44.493Z,70.27
2018-12-08T00:39:49.202Z,70.46
2018-12-08T00:41:53.946Z,70.17
2018-12-08T00:43:58.670Z,70.56
2018-12-08T00:46:04.226Z,70.85
2018-12-08T00:48:08.992Z,71.42
2018-12-08T00:50:13.643Z,71.09
2018-12-08T00:52:18.663Z,71.50
2018-12-08T00:54:23.367Z,71.26
2018-12-08T00:56:28.091Z,70.85
2018-12-08T00:58:32.778Z,70.86
2018-12-08T01:00:37.539Z,71.01
2018-12-08T01:02:42.314Z,69.83
2018-12-08T01:04:47.159Z,70.73
2018-12-08T01:06:52.732Z,70.54
2018-12-08T01:08:57.427Z,70.71
2018-12-08T01:11:03.321Z,70.37
2018-12-08T01:13:08.099Z,70.46
2018-12-08T01:15:13.017Z,69.69
2018-12-08T01:17:17.769Z,69.61
2018-12-08T01:19:23.379Z,69.40
2018-12-08T01:21:28.292Z,69.23
2018-12-08T01:23:33.011Z,69.65
2018-12-08T01:25:37.907Z,70.22
2018-12-08T01:27:42.715Z,69.93
2018-12-08T01:29:47.910Z,70.25
2018-12-08T01:31:53.373Z,70.25
2018-12-08T01:33:59.316Z,70.24
2018-12-08T01:36:04.050Z,70.44
2018-12-08T01:38:08.692Z,70.71
2018-12-08T01:40:14.208Z,70.94
2018-12-08T01:42:20.619Z,70.70
2018-12-08T01:44:25.374Z,69.95
2018-12-08T01:46:31.104Z,70.82
2018-12-08T01:48:35.849Z,70.62
2018-12-08T01:50:40.641Z,70.65
2018-12-08T01:52:45.744Z,70.73
2018-12-08T01:54:50.760Z,70.48
2018-12-08T01:56:58.053Z,71.45
2018-12-08T01:59:02.914Z,70.55
2018-12-08T02:01:07.836Z,70.57
2018-12-08T02:03:12.484Z,70.39
2018-12-08T02:05:17.944Z,70.89
2018-12-08T02:07:22.624Z,70.29
2018-12-08T02:09:27.520Z,70.37
2018-12-08T02:11:33.290Z,70.20
2018-12-08T02:13:38.315Z,70.39
2018-12-08T02:15:42.993Z,70.87
2018-12-08T02:17:47.747Z,70.75
2018-12-08T02:19:52.734Z,70.73
2018-12-08T02:21:57.522Z,70.49
2018-12-08T02:24:02.279Z,70.53
2018-12-08T02:26:07.251Z,69.90
2018-12-08T02:28:12.049Z,70.40
2018-12-08T02:30:18.309Z,70.36
2018-12-08T02:32:23.050Z,69.74
2018-12-08T02:34:27.725Z,70.37
2018-12-08T02:36:32.466Z,70.56
2018-12-08T02:38:37.209Z,70.65
2018-12-08T02:40:42.004Z,70.78
2018-12-08T02:42:46.660Z,69.92
2018-12-08T02:44:52.559Z,69.89
2018-12-08T02:46:57.710Z,69.84
2018-12-08T02:49:02.385Z,69.09
2018-12-08T02:51:07.077Z,70.03
2018-12-08T02:53:11.768Z,69.74
2018-12-08T02:55:16.481Z,69.75
2018-12-08T02:57:21.191Z,69.70
2018-12-08T02:59:25.930Z,69.45
2018-12-08T03:01:30.730Z,69.70
2018-12-08T03:03:35.542Z,69.55
2018-12-08T03:05:40.303Z,69.47
2018-12-08T03:07:45.033Z,69.52
2018-12-08T03:09:49.840Z,69.91
2018-12-08T03:11:54.644Z,70.22
2018-12-08T03:13:59.408Z,69.90
2018-12-08T03:16:04.989Z,70.09
2018-12-08T03:18:09.728Z,69.82
2018-12-08T03:20:15.233Z,70.04
2018-12-08T03:22:20.074Z,69.85
2018-12-08T03:24:25.526Z,69.42
2018-12-08T03:26:30.318Z,69.25
2018-12-08T03:28:35.838Z,69.40
2018-12-08T03:30:41.521Z,69.96
2018-12-08T03:32:46.897Z,69.70
2018-12-08T03:34:51.549Z,69.59
2018-12-08T03:36:56.211Z,69.51
2018-12-08T03:39:00.863Z,69.80
2018-12-08T03:41:05.651Z,69.99
2018-12-08T03:43:11.206Z,70.08
2018-12-08T03:45:15.884Z,69.71
2018-12-08T03:47:20.795Z,69.69
2018-12-08T03:49:25.600Z,69.72
2018-12-08T03:51:31.023Z,69.96
2018-12-08T03:53:35.771Z,70.16
2018-12-08T03:55:42.297Z,69.74
2018-12-08T03:57:47.629Z,69.57
2018-12-08T03:59:52.496Z,69.83
2018-12-08T04:01:57.309Z,69.76
2018-12-08T04:04:02.059Z,69.52
2018-12-08T04:06:06.843Z,69.01
2018-12-08T04:08:11.575Z,69.64
2018-12-08T04:10:16.257Z,69.19
2018-12-08T04:12:20.970Z,69.14
2018-12-08T04:14:25.752Z,68.92
2018-12-08T04:16:30.405Z,68.86
2018-12-08T04:18:36.068Z,68.83
2018-12-08T04:20:40.824Z,69.13
2018-12-08T04:22:45.546Z,68.84
2018-12-08T04:24:51.067Z,69.11
2018-12-08T04:26:55.935Z,68.78
2018-12-08T04:29:01.257Z,68.93
2018-12-08T04:31:06.102Z,68.64
2018-12-08T04:33:11.688Z,68.83
2018-12-08T04:35:16.432Z,68.46
2018-12-08T04:37:21.241Z,68.43
2018-12-08T04:39:27.240Z,68.49
2018-12-08T04:41:32.551Z,68.64
2018-12-08T04:43:37.294Z,68.56
2018-12-08T04:45:41.956Z,68.58
2018-12-08T04:47:46.593Z,68.12
2018-12-08T04:49:51.326Z,69.04
2018-12-08T04:51:55.956Z,69.33
2018-12-08T04:54:00.693Z,68.80
2018-12-08T04:56:05.607Z,68.53
2018-12-08T04:58:11.444Z,68.17
2018-12-08T05:00:16.778Z,68.74
2018-12-08T05:02:22.204Z,68.83
2018-12-08T05:04:26.855Z,68.32
2018-12-08T05:06:31.651Z,68.91
2018-12-08T05:08:36.511Z,69.13
2018-12-08T05:10:41.290Z,69.16
2018-12-08T05:12:46.973Z,69.24
2018-12-08T05:14:51.704Z,69.11
2018-12-08T05:16:57.237Z,68.86
2018-12-08T05:19:02.191Z,68.83
2018-12-08T05:21:07.062Z,68.29
2018-12-08T05:23:12.228Z,68.42
2018-12-08T05:25:18.038Z,68.00
2018-12-08T05:27:22.754Z,67.97
2018-12-08T05:29:27.428Z,68.42
2018-12-08T05:31:32.554Z,67.87
2018-12-08T05:33:38.311Z,67.93
2018-12-08T05:35:43.051Z,67.56
2018-12-08T05:37:47.720Z,67.75
2018-12-08T05:39:52.565Z,67.93
2018-12-08T05:41:57.271Z,67.80
2018-12-08T05:44:03.392Z,67.64
2018-12-08T05:46:08.266Z,67.46
2018-12-08T05:48:13.109Z,67.90
2018-12-08T05:50:17.975Z,67.88
2018-12-08T05:52:24.242Z,68.37
2018-12-08T05:54:29.978Z,68.10
2018-12-08T05:56:34.724Z,68.12
2018-12-08T05:58:39.420Z,68.22
2018-12-08T06:00:44.126Z,68.49
2018-12-08T06:02:50.071Z,68.20
2018-12-08T06:04:54.825Z,67.69
2018-12-08T06:06:59.848Z,68.70
2018-12-08T06:09:06.783Z,70.33
2018-12-08T06:11:11.708Z,70.42
2018-12-08T06:13:16.479Z,71.45
2018-12-08T06:15:22.114Z,71.11
2018-12-08T06:17:26.890Z,71.84
2018-12-08T06:19:31.775Z,71.82
2018-12-08T06:21:40.275Z,71.70
2018-12-08T06:23:45.212Z,70.45
2018-12-08T06:25:50.932Z,70.17
2018-12-08T06:28:06.948Z,70.46
2018-12-08T06:30:11.648Z,71.06
2018-12-08T06:32:17.443Z,70.61
2018-12-08T06:34:22.618Z,70.81
2018-12-08T06:36:27.596Z,70.98
2018-12-08T06:38:32.627Z,70.43
2018-12-08T06:40:37.462Z,70.25
2018-12-08T06:42:42.227Z,69.87
2018-12-08T06:44:47.082Z,69.79
2018-12-08T06:46:52.177Z,69.63
2018-12-08T06:48:58.188Z,69.84
2018-12-08T06:51:03.765Z,69.50
2018-12-08T06:53:08.554Z,69.70
2018-12-08T06:55:13.579Z,69.27
2018-12-08T06:57:19.501Z,69.64
2018-12-08T07:01:46.280Z,70.05
2018-12-08T07:03:53.955Z,69.88
2018-12-08T07:06:00.865Z,71.04
2018-12-08T07:08:05.923Z,72.24
2018-12-08T07:10:12.599Z,72.36
2018-12-08T07:12:18.121Z,72.40
2018-12-08T07:14:23.676Z,72.26
2018-12-08T07:16:29.206Z,72.73
2018-12-08T07:18:34.078Z,72.66
2018-12-08T07:20:39.088Z,72.03
2018-12-08T07:22:44.281Z,72.46
2018-12-08T07:24:51.301Z,72.82
2018-12-08T07:26:56.329Z,73.42
2018-12-08T07:29:01.178Z,73.83
2018-12-08T07:31:06.654Z,74.43
2018-12-08T07:33:11.990Z,74.45
2018-12-08T07:35:17.116Z,73.14
2018-12-08T07:37:22.968Z,73.54
2018-12-08T07:39:48.686Z,73.66
2018-12-08T07:41:54.926Z,72.67
2018-12-08T07:43:59.758Z,73.44
2018-12-08T07:46:05.123Z,73.10
2018-12-08T07:48:09.968Z,73.62
2018-12-08T07:50:14.785Z,73.48
2018-12-08T07:52:21.009Z,73.45
2018-12-08T07:54:27.550Z,72.92
2018-12-08T07:56:33.339Z,73.54
2018-12-08T07:58:38.059Z,73.66
2018-12-08T08:00:43.498Z,73.71
2018-12-08T08:02:48.232Z,73.70
2018-12-08T08:04:53.958Z,74.52
2018-12-08T08:06:59.474Z,74.01
2018-12-08T08:09:05.751Z,73.89
2018-12-08T08:11:10.847Z,73.80
2018-12-08T08:13:16.216Z,73.84
2018-12-08T08:15:22.105Z,73.62
2018-12-08T08:17:27.906Z,73.43
2018-12-08T08:19:32.649Z,73.34
2018-12-08T08:21:37.537Z,72.65
2018-12-08T08:23:42.257Z,73.06
2018-12-08T08:25:47.055Z,72.61
2018-12-08T08:27:51.941Z,72.39
2018-12-08T08:29:56.776Z,72.41
2018-12-08T08:32:01.573Z,71.75
2018-12-08T08:34:07.221Z,72.06
2018-12-08T08:36:14.121Z,72.24
2018-12-08T08:38:19.032Z,72.10
2018-12-08T08:40:23.842Z,73.22
2018-12-08T08:42:28.695Z,72.66
2018-12-08T08:44:33.620Z,73.07
2018-12-08T08:46:38.797Z,73.40
2018-12-08T08:48:43.740Z,73.94
2018-12-08T08:50:49.809Z,73.15
2018-12-08T08:52:55.456Z,73.62
2018-12-08T08:55:00.396Z,73.75
2018-12-08T08:57:05.402Z,74.45
2018-12-08T08:59:10.522Z,74.00
2018-12-08T09:01:16.431Z,73.99
2018-12-08T09:03:22.009Z,73.94
2018-12-08T09:05:27.659Z,73.79
2018-12-08T09:07:34.121Z,73.35
2018-12-08T09:09:39.088Z,74.12
2018-12-08T09:11:48.294Z,73.09
2018-12-08T09:13:53.543Z,73.10
2018-12-08T09:16:03.732Z,73.14
2018-12-08T09:18:08.681Z,72.51
2018-12-08T09:20:14.107Z,72.48
2018-12-08T09:22:19.547Z,72.84
2018-12-08T09:24:24.286Z,72.88
2018-12-08T09:26:29.431Z,72.29
2018-12-08T09:28:34.819Z,72.31
2018-12-08T09:30:39.623Z,71.90
2018-12-08T09:32:48.698Z,72.66
2018-12-08T09:34:55.642Z,73.09
2018-12-08T09:37:06.581Z,73.01
2018-12-08T09:39:11.524Z,73.50
2018-12-08T09:41:16.610Z,73.50
2018-12-08T09:43:21.730Z,73.64
2018-12-08T09:45:27.366Z,73.62
2018-12-08T09:47:32.447Z,73.78
2018-12-08T09:49:37.591Z,74.09
2018-12-08T09:51:43.681Z,73.71
2018-12-08T09:53:49.882Z,73.25
2018-12-08T09:56:01.158Z,73.27
2018-12-08T09:58:07.347Z,73.54
2018-12-08T10:00:14.514Z,73.39
2018-12-08T10:02:22.962Z,72.65
2018-12-08T10:04:28.536Z,71.98
2018-12-08T10:06:36.701Z,72.43
2018-12-08T10:08:42.165Z,72.01
2018-12-08T10:10:50.174Z,72.39
2018-12-08T10:12:59.123Z,72.10
2018-12-08T10:15:05.459Z,72.17
2018-12-08T10:17:15.614Z,72.53
2018-12-08T10:19:22.932Z,72.32
2018-12-08T10:21:29.280Z,72.60
2018-12-08T10:26:01.765Z,72.87
2018-12-08T10:28:07.870Z,72.42
2018-12-08T10:30:14.150Z,73.32
2018-12-08T10:32:21.362Z,72.95
2018-12-08T10:34:28.542Z,73.61
2018-12-08T10:36:45.090Z,72.89
2018-12-08T10:38:54.410Z,72.94
2018-12-08T10:41:19.063Z,73.27
2018-12-08T10:43:36.751Z,73.43
2018-12-08T10:48:40.807Z,72.68
2018-12-08T10:50:53.779Z,71.95
2018-12-08T10:53:02.387Z,72.04
2018-12-08T10:55:17.153Z,72.70
2018-12-08T10:57:29.766Z,72.15
2018-12-08T10:59:40.855Z,71.24
2018-12-08T11:02:07.509Z,71.38
2018-12-08T11:04:31.740Z,70.90
2018-12-08T11:06:56.347Z,69.75
2018-12-08T11:09:10.945Z,70.08
2018-12-08T11:11:37.576Z,69.88
2018-12-08T11:13:46.457Z,69.98
2018-12-08T11:15:53.440Z,70.18
2018-12-08T11:18:02.415Z,69.67
2018-12-08T11:20:11.859Z,69.32
2018-12-08T11:22:18.075Z,68.59
2018-12-08T11:24:27.641Z,68.29
2018-12-08T11:26:38.917Z,67.90
2018-12-08T11:28:46.619Z,68.10
2018-12-08T11:30:57.770Z,69.09
2018-12-08T11:35:34.258Z,67.72
2018-12-08T11:37:42.900Z,68.30
2018-12-08T11:40:06.472Z,68.12
2018-12-08T11:42:17.487Z,68.27
2018-12-08T11:44:23.804Z,67.78
2018-12-08T11:46:49.038Z,68.54
2018-12-08T11:51:49.328Z,68.20
2018-12-08T11:54:04.219Z,68.06
2018-12-08T11:56:11.101Z,68.17
2018-12-08T11:58:17.492Z,67.99
2018-12-08T12:00:27.745Z,67.50
2018-12-08T12:02:33.771Z,67.74
2018-12-08T12:04:39.248Z,67.03
2018-12-08T12:06:44.131Z,66.29
2018-12-08T12:08:49.954Z,66.40
2018-12-08T12:10:55.559Z,66.03
2018-12-08T12:13:02.238Z,65.66
2018-12-08T12:15:08.425Z,64.76
2018-12-08T12:17:16.351Z,64.39
2018-12-08T12:19:21.723Z,64.79
2018-12-08T12:21:28.087Z,65.14
2018-12-08T12:23:34.181Z,65.41
2018-12-08T12:25:43.764Z,65.26
2018-12-08T12:27:49.376Z,65.41
2018-12-08T12:29:54.920Z,65.24
2018-12-08T12:32:00.719Z,64.70
2018-12-08T12:34:06.625Z,65.02
2018-12-08T12:36:12.845Z,65.29
2018-12-08T12:38:18.981Z,64.83
2018-12-08T12:40:25.640Z,64.38
2018-12-08T12:42:31.694Z,65.02
2018-12-08T12:44:37.287Z,64.54
2018-12-08T12:46:44.493Z,64.13
2018-12-08T12:48:58.023Z,64.13
2018-12-08T12:51:05.085Z,64.16
2018-12-08T12:53:12.345Z,63.79
2018-12-08T12:55:18.265Z,64.61
2018-12-08T12:57:23.322Z,62.94
2018-12-08T12:59:30.317Z,63.45
2018-12-08T13:01:35.889Z,63.09
2018-12-08T13:03:42.661Z,63.39
2018-12-08T13:05:48.234Z,63.92
2018-12-08T13:07:54.802Z,63.75
2018-12-08T13:10:00.034Z,63.12
2018-12-08T13:12:07.603Z,63.57
2018-12-08T13:14:13.330Z,64.08
2018-12-08T13:16:19.657Z,63.58
2018-12-08T13:18:27.448Z,62.93
2018-12-08T13:20:35.260Z,64.75
2018-12-08T13:22:42.655Z,65.94
2018-12-08T13:24:47.572Z,66.75
2018-12-08T13:26:53.210Z,66.70
2018-12-08T13:28:58.511Z,67.79
2018-12-08T13:31:03.464Z,68.37
2018-12-08T13:33:10.909Z,68.19
2018-12-08T13:35:32.401Z,68.07
2018-12-08T13:37:38.080Z,67.79
2018-12-08T13:39:43.942Z,67.80
2018-12-08T13:41:49.220Z,67.81
2018-12-08T13:43:57.315Z,68.10
2018-12-08T13:46:03.038Z,68.26
2018-12-08T13:48:08.608Z,68.24
2018-12-08T13:50:14.835Z,68.35
2018-12-08T13:52:21.635Z,68.05
2018-12-08T13:54:53.454Z,68.97
2018-12-08T13:56:59.176Z,68.72
2018-12-08T13:59:04.401Z,68.82
2018-12-08T14:01:09.232Z,68.27
2018-12-08T14:03:14.385Z,68.16
2018-12-08T14:05:20.106Z,68.35
2018-12-08T14:07:25.487Z,68.20
2018-12-08T14:09:30.901Z,67.92
2018-12-08T14:11:36.220Z,67.07
2018-12-08T14:13:41.204Z,67.03
2018-12-08T14:15:46.259Z,67.16
2018-12-08T14:17:51.120Z,66.15
2018-12-08T14:19:56.290Z,65.64
2018-12-08T14:22:01.396Z,65.36
2018-12-08T14:24:07.124Z,65.39
2018-12-08T14:28:15.925Z,63.93
2018-12-08T14:30:22.879Z,63.89
2018-12-08T14:32:28.355Z,63.58
2018-12-08T14:34:34.582Z,63.92
2018-12-08T14:36:42.918Z,63.93
2018-12-08T14:38:48.880Z,63.77
2018-12-08T14:40:54.878Z,63.30
2018-12-08T14:45:19.126Z,62.90
2018-12-08T14:47:24.803Z,63.59
2018-12-08T14:49:29.973Z,63.68
2018-12-08T14:51:37.724Z,63.93
2018-12-08T14:53:42.802Z,63.83
2018-12-08T14:55:48.210Z,63.00
2018-12-08T14:57:52.976Z,63.38
2018-12-08T14:59:58.838Z,63.98
2018-12-08T15:02:04.359Z,64.11
2018-12-08T15:04:10.196Z,64.13
2018-12-08T15:06:15.068Z,63.82
2018-12-08T15:08:19.846Z,62.75
2018-12-08T15:10:24.766Z,62.84
2018-12-08T15:12:29.633Z,62.42
2018-12-08T15:14:34.482Z,63.13
2018-12-08T15:16:39.694Z,62.52
2018-12-08T15:18:45.150Z,62.95
2018-12-08T15:20:50.768Z,61.85
2018-12-08T15:22:56.194Z,62.33
2018-12-08T15:25:01.448Z,61.70
2018-12-08T15:27:06.782Z,62.50
2018-12-08T15:29:11.896Z,62.31
2018-12-08T15:31:17.377Z,62.54
2018-12-08T15:33:23.257Z,62.46
2018-12-08T15:35:28.828Z,63.00
2018-12-08T15:37:34.135Z,62.57
2018-12-08T15:39:39.194Z,62.16
2018-12-08T15:41:44.525Z,61.33
2018-12-08T15:43:50.788Z,61.89
2018-12-08T15:45:55.575Z,61.46
2018-12-08T15:48:00.326Z,61.89
2018-12-08T15:50:05.978Z,62.16
2018-12-08T15:52:10.827Z,62.32
2018-12-08T15:54:15.727Z,62.66
2018-12-08T15:56:20.639Z,62.97
2018-12-08T15:58:25.544Z,63.50
2018-12-08T16:00:30.953Z,64.11
2018-12-08T16:02:36.494Z,64.66
2018-12-08T16:04:41.731Z,64.70
2018-12-08T16:06:46.818Z,65.05
2018-12-08T16:11:11.769Z,65.24
2018-12-08T16:13:16.594Z,65.66
2018-12-08T16:15:25.013Z,66.17
2018-12-08T16:17:31.321Z,66.26
2018-12-08T16:19:37.205Z,66.48
2018-12-08T16:21:42.255Z,66.37
2018-12-08T16:28:31.149Z,66.69
2018-12-08T16:30:36.249Z,66.95
2018-12-08T16:32:41.423Z,67.24
2018-12-08T16:34:48.878Z,67.52
2018-12-08T16:36:54.834Z,67.67
2018-12-08T16:39:06.295Z,67.12
2018-12-08T16:41:11.963Z,67.81
2018-12-08T16:43:32.544Z,67.51
2018-12-08T16:45:38.056Z,67.43
2018-12-08T16:47:44.348Z,67.87
2018-12-08T16:49:49.301Z,67.98
2018-12-08T16:51:54.350Z,68.46
2018-12-08T16:54:00.048Z,69.33
2018-12-08T16:56:05.180Z,69.55
2018-12-08T16:58:11.249Z,69.94
2018-12-08T17:00:16.559Z,69.49
2018-12-08T17:02:21.714Z,69.94
2018-12-08T17:04:26.649Z,71.46
2018-12-08T17:06:32.404Z,71.33
2018-12-08T17:08:37.773Z,72.10
2018-12-08T17:10:43.438Z,72.17
2018-12-08T17:12:50.099Z,72.62
2018-12-08T17:14:56.241Z,72.62
2018-12-08T17:17:01.621Z,72.83
2018-12-08T17:19:08.478Z,73.69
2018-12-08T17:21:16.090Z,74.84
2018-12-08T17:23:21.278Z,76.05
2018-12-08T17:25:27.523Z,76.31
2018-12-08T17:27:35.623Z,77.04
2018-12-08T17:29:40.896Z,77.85
2018-12-08T17:31:45.652Z,78.93
2018-12-08T17:33:50.473Z,79.16
2018-12-08T17:35:55.503Z,79.68
2018-12-08T17:38:00.496Z,80.02
2018-12-08T17:40:11.578Z,80.04
2018-12-08T17:42:16.652Z,80.47
2018-12-08T17:44:21.823Z,80.64
2018-12-08T17:46:27.954Z,80.67
2018-12-08T17:48:32.836Z,80.53
2018-12-08T17:50:37.856Z,80.53
2018-12-08T17:52:42.897Z,80.81
2018-12-08T17:57:16.988Z,80.81
2018-12-08T17:59:22.385Z,80.99
2018-12-08T18:01:28.572Z,81.01
2018-12-08T18:03:33.671Z,81.11
2018-12-08T18:05:38.675Z,80.63
2018-12-08T18:07:43.642Z,80.31
2018-12-08T18:09:48.702Z,80.96
2018-12-08T18:11:53.964Z,80.89
2018-12-08T18:13:58.829Z,80.29
2018-12-08T18:16:03.789Z,80.36
2018-12-08T18:18:09.093Z,80.27
2018-12-08T18:20:14.877Z,80.40
2018-12-08T18:22:20.046Z,79.68
2018-12-08T18:24:26.089Z,79.97
2018-12-08T18:26:31.081Z,80.16
2018-12-08T18:28:36.089Z,79.98
2018-12-08T18:30:41.326Z,79.57
2018-12-08T18:32:46.912Z,79.67
2018-12-08T18:34:53.379Z,80.20
2018-12-08T18:36:59.729Z,80.56
2018-12-08T18:39:11.129Z,80.49
2018-12-08T18:41:17.231Z,80.82
2018-12-08T18:43:23.501Z,80.58
2018-12-08T18:45:31.409Z,80.94
2018-12-08T18:47:40.271Z,81.06
2018-12-08T18:52:05.137Z,80.94
2018-12-08T18:54:11.947Z,81.03
2018-12-08T18:56:18.876Z,81.25
2018-12-08T18:58:26.433Z,81.31
2018-12-08T19:00:32.226Z,81.14
2018-12-08T19:02:41.185Z,81.32
2018-12-08T19:04:49.550Z,81.37
2018-12-08T19:06:54.828Z,81.95
2018-12-08T19:08:59.944Z,81.95
2018-12-08T19:11:06.721Z,82.48
2018-12-08T19:13:17.787Z,82.65
2018-12-08T19:15:23.832Z,83.00
2018-12-08T19:17:31.687Z,83.07
2018-12-08T19:19:38.302Z,83.56
2018-12-08T19:21:44.109Z,83.98
2018-12-08T19:23:50.229Z,84.26
2018-12-08T19:25:56.520Z,84.59
2018-12-08T19:28:04.528Z,84.81
2018-12-08T19:30:12.994Z,84.74
2018-12-08T19:32:19.826Z,84.76
2018-12-08T19:34:27.477Z,84.61
2018-12-08T19:36:44.240Z,84.58
2018-12-08T19:44:39.352Z,84.59
2018-12-08T19:46:59.779Z,84.81
2018-12-08T19:49:08.948Z,84.89
2018-12-08T19:51:15.102Z,84.69
2018-12-08T19:53:21.006Z,84.86
2018-12-08T19:55:26.869Z,85.03
2018-12-08T19:57:33.514Z,84.51
2018-12-08T19:59:38.770Z,84.57
2018-12-08T20:01:45.419Z,84.35
2018-12-08T20:03:51.425Z,84.03
2018-12-08T20:05:57.960Z,83.88
2018-12-08T20:08:03.093Z,84.16
2018-12-08T20:10:09.773Z,84.13
2018-12-08T20:12:15.516Z,84.35
2018-12-08T20:14:21.035Z,84.63
2018-12-08T20:16:26.500Z,84.94
2018-12-08T20:18:31.580Z,85.00
2018-12-08T20:20:43.713Z,84.83
2018-12-08T20:22:49.708Z,85.05
2018-12-08T20:24:55.682Z,84.89
2018-12-08T20:27:00.695Z,84.76
2018-12-08T20:29:06.664Z,85.05
2018-12-08T20:31:12.186Z,84.60
2018-12-08T20:33:17.742Z,84.52
2018-12-08T20:35:24.668Z,84.96
2018-12-08T20:37:29.896Z,85.08
2018-12-08T20:39:35.435Z,85.17
2018-12-08T20:41:41.044Z,85.16
2018-12-08T20:43:46.515Z,85.41
2018-12-08T20:45:54.003Z,85.19
2018-12-08T20:48:01.710Z,85.09
2018-12-08T20:50:12.541Z,84.98
2018-12-08T20:52:18.006Z,85.01
2018-12-08T20:54:23.671Z,84.90
2018-12-08T20:56:28.889Z,84.65
2018-12-08T20:58:34.376Z,84.18
2018-12-08T21:00:39.811Z,84.53
2018-12-08T21:02:45.051Z,84.42
2018-12-08T21:04:50.180Z,84.10
2018-12-08T21:06:56.356Z,82.90
2018-12-08T21:09:01.525Z,81.94
2018-12-08T21:11:06.792Z,82.30
2018-12-08T21:13:12.062Z,82.26
2018-12-08T21:15:19.970Z,80.60
2018-12-08T21:17:25.761Z,79.68
2018-12-08T21:19:36.335Z,79.12
2018-12-08T21:21:44.184Z,79.39
2018-12-08T21:23:49.491Z,79.65
2018-12-08T21:25:56.402Z,80.73
2018-12-08T21:28:01.909Z,80.47
2018-12-08T21:30:08.131Z,80.86
2018-12-08T21:32:13.830Z,80.66
2018-12-08T21:34:18.891Z,80.67
2018-12-08T21:36:25.291Z,80.62
2018-12-08T21:38:30.521Z,80.47
2018-12-08T21:40:35.675Z,80.31
2018-12-08T21:42:40.954Z,79.94
2018-12-08T21:44:47.293Z,79.81
2018-12-08T21:46:54.036Z,80.32
2018-12-08T21:48:59.581Z,79.56
2018-12-08T21:51:07.981Z,79.33
2018-12-08T21:53:14.250Z,78.89
2018-12-08T21:55:19.337Z,78.65
2018-12-08T21:57:25.907Z,78.89
2018-12-08T21:59:32.206Z,78.27
2018-12-08T22:01:37.992Z,78.50
2018-12-08T22:03:43.214Z,78.50
2018-12-08T22:05:48.300Z,79.09
2018-12-08T22:07:53.294Z,78.70
2018-12-08T22:09:58.170Z,78.58
2018-12-08T22:12:03.501Z,78.68
2018-12-08T22:14:08.538Z,78.40
2018-12-08T22:16:13.640Z,77.29
2018-12-08T22:18:18.663Z,77.52
2018-12-08T22:20:23.368Z,77.03
2018-12-08T22:22:30.368Z,76.46
2018-12-08T22:24:35.135Z,75.40
2018-12-08T22:26:40.155Z,75.30
2018-12-08T22:28:45.097Z,75.59
2018-12-08T22:30:49.864Z,74.21
2018-12-08T22:32:54.703Z,73.62
2018-12-08T22:34:59.535Z,73.47
2018-12-08T22:37:04.733Z,72.59
2018-12-08T22:39:09.618Z,72.70
2018-12-08T22:41:14.508Z,72.70
2018-12-08T22:43:19.409Z,72.70
2018-12-08T22:45:24.796Z,72.14
2018-12-08T22:47:29.737Z,71.57
2018-12-08T22:49:34.704Z,72.41
2018-12-08T22:51:40.757Z,72.33
2018-12-08T22:53:47.158Z,71.64
2018-12-08T22:55:56.965Z,72.11
2018-12-08T22:58:02.668Z,71.53
2018-12-08T23:00:41.554Z,71.29
2018-12-08T23:02:46.338Z,70.82
2018-12-08T23:04:52.668Z,71.57
2018-12-08T23:07:06.775Z,71.96
2018-12-08T23:09:12.053Z,70.50
2018-12-08T23:11:17.429Z,70.40
2018-12-08T23:13:22.273Z,70.56
2018-12-08T23:15:27.161Z,71.35
2018-12-08T23:17:32.544Z,71.33
2018-12-08T23:19:40.684Z,71.35
2018-12-08T23:21:47.433Z,70.85
2018-12-08T23:23:54.820Z,70.20
2018-12-08T23:26:02.481Z,70.42
2018-12-08T23:28:07.982Z,68.97
2018-12-08T23:30:36.739Z,69.01
2018-12-08T23:32:42.838Z,69.33
2018-12-08T23:34:48.825Z,69.56
2018-12-08T23:36:54.440Z,68.32
2018-12-08T23:38:59.287Z,67.98
2018-12-08T23:41:04.554Z,68.00
2018-12-08T23:43:09.346Z,68.68
2018-12-08T23:47:32.324Z,69.40
2018-12-08T23:49:39.452Z,68.38
2018-12-08T23:51:44.505Z,69.45
2018-12-08T23:53:49.371Z,69.61
2018-12-08T23:55:54.808Z,69.11
2018-12-08T23:58:00.965Z,69.28
